Airfield :
LOGIN :

Register | Disclaimer

   EN    FR    IT 

 










Legend :    VFR   Marginal VFR   IFR   Intensive IFR   Very Intensive IFR
Visi :
Ceiling :
>= 8 km
>= 3000ft
5 to 8 km
1000 to 3000 ft
1500m to 5 km
500 to 1000 ft
800 to 1500m
200 to 500 ft
< 800m
< 200 ft
Symbols :   Thunderstorms  Fog  Heavy snow  Heavy precipitations  Wind > 20 kt
SIGMETs :     Misc.  Thunderstorms  Icing  Turbulence  Mountain Waves  Volcanic Ashes







- Airport Elevation : 11 ft
- IATA code : SXL


EISG - Sligo

CURRENT METAR :
  • 191630Z 16013KT 130V190 CAVOK 15/12 Q1014

EXPIRED METARs :
  • 191600Z 16010KT 120V190 CAVOK 15/12 Q1014
  • 191530Z 17010G21KT 130V230 9999 FEW043 OVC055 15/12 Q1014
  • 191500Z 16008G20KT 130V200 9999 OVC043 15/12 Q1015
  • 191430Z 16009KT 140V200 9999 OVC044 16/12 Q1015
  • 191400Z 17011KT CAVOK 16/12 Q1015

TAF TAF EISG
Valid from the 19 at 15:00 until the 20 at 00:00 UTC


191400Z 1915/1924 17012KT 9999 SCT015 BKN022
TEMPO 1915/1919 18015G25KT 5000 -RADZ SCT007 BKN012
No reported NOTAMs for that airfield.



MET'MAP, your aeronautical weather chart ! - Copyright ORBIFLY December 2007 - Disclaimer

ORBIFLY MET'MAP TEAM :

Programming & Development : Alexandra Zaïnal
Concept & Development : Baudouin d'Aumeries
Co-Development & Prog : Marc-Olivier Méhu
Technical & hardware support : Manuel Goepfert

Contact : metmap@orbifly.com




SOURCES & CREDITS :

   NOAA